createdAt,value
2023-03-19T00:00:49.584Z,13.25
2023-03-19T00:03:37.212Z,13.57
2023-03-19T00:06:04.637Z,14.20
2023-03-19T00:08:32.369Z,14.70
2023-03-19T00:10:59.648Z,14.55
2023-03-19T00:13:27.499Z,14.00
2023-03-19T00:15:54.773Z,16.50
2023-03-19T00:18:22.421Z,15.35
2023-03-19T00:20:49.626Z,15.60
2023-03-19T00:23:17.161Z,15.32
2023-03-19T00:25:44.514Z,14.75
2023-03-19T00:28:12.195Z,14.43
2023-03-19T00:30:39.592Z,13.25
2023-03-19T00:33:07.295Z,12.48
2023-03-19T00:35:34.811Z,13.95
2023-03-19T00:38:03.018Z,13.52
2023-03-19T00:40:30.615Z,13.88
2023-03-19T00:42:58.272Z,12.52
2023-03-19T00:45:25.558Z,13.10
2023-03-19T00:47:53.154Z,12.70
2023-03-19T00:50:20.568Z,12.85
2023-03-19T00:52:48.116Z,11.98
2023-03-19T00:55:15.454Z,11.38
2023-03-19T00:57:42.984Z,10.93
2023-03-19T01:00:11.501Z,10.63
2023-03-19T01:02:39.002Z,10.18
2023-03-19T01:05:08.155Z,10.70
2023-03-19T01:07:35.989Z,11.35
2023-03-19T01:10:03.666Z,10.88
2023-03-19T01:12:31.244Z,12.00
2023-03-19T01:14:58.619Z,11.75
2023-03-19T01:17:26.468Z,10.57
2023-03-19T01:19:53.719Z,12.23
2023-03-19T01:22:21.420Z,12.30
2023-03-19T01:24:48.814Z,12.30
2023-03-19T01:27:16.497Z,11.77
2023-03-19T01:29:43.747Z,12.15
2023-03-19T01:32:11.743Z,12.10
2023-03-19T01:34:39.040Z,11.80
2023-03-19T01:37:06.591Z,11.95
2023-03-19T01:39:34.023Z,12.63
2023-03-19T01:42:03.359Z,11.38
2023-03-19T01:44:37.439Z,11.93
2023-03-19T01:47:32.244Z,11.63
2023-03-19T01:50:00.730Z,10.93
2023-03-19T01:52:34.966Z,12.82
2023-03-19T01:55:05.888Z,11.75
2023-03-19T01:57:33.666Z,12.43
2023-03-19T02:00:05.493Z,12.65
2023-03-19T02:02:35.456Z,13.68
2023-03-19T02:05:10.845Z,12.23
2023-03-19T02:07:43.115Z,13.75
2023-03-19T02:10:17.795Z,13.82
2023-03-19T02:12:45.369Z,13.10
2023-03-19T02:15:13.072Z,13.68
2023-03-19T02:17:42.362Z,13.77
2023-03-19T02:20:34.964Z,13.13
2023-03-19T02:23:42.411Z,13.38
2023-03-19T02:26:20.468Z,13.07
2023-03-19T02:28:51.550Z,13.52
2023-03-19T02:31:20.859Z,12.38
2023-03-19T02:34:28.704Z,13.60
2023-03-19T02:37:05.571Z,13.52
2023-03-19T02:39:58.038Z,14.20
2023-03-19T02:42:30.023Z,15.95
2023-03-19T02:44:58.721Z,15.60
2023-03-19T02:47:27.725Z,16.55
2023-03-19T02:49:55.314Z,17.45
2023-03-19T02:52:22.778Z,17.20
2023-03-19T02:54:50.566Z,18.67
2023-03-19T02:57:17.913Z,17.80
2023-03-19T02:59:45.505Z,20.38
2023-03-19T03:02:13.490Z,21.42
2023-03-19T03:04:41.965Z,19.65
2023-03-19T03:07:10.137Z,20.65
2023-03-19T03:09:38.017Z,20.52
2023-03-19T03:12:06.232Z,19.35
2023-03-19T03:14:33.877Z,21.65
2023-03-19T03:17:01.165Z,18.52
2023-03-19T03:19:28.779Z,18.77
2023-03-19T03:21:56.088Z,19.20
2023-03-19T03:24:24.342Z,19.48
2023-03-19T03:26:51.752Z,19.80
2023-03-19T03:29:19.546Z,19.00
2023-03-19T03:31:46.884Z,20.00
2023-03-19T03:34:14.519Z,19.23
2023-03-19T03:36:41.796Z,18.75
2023-03-19T03:39:09.447Z,17.42
2023-03-19T03:41:36.735Z,16.90
2023-03-19T03:44:04.425Z,17.58
2023-03-19T03:46:31.725Z,19.08
2023-03-19T03:48:59.246Z,17.13
2023-03-19T03:51:26.514Z,17.40
2023-03-19T03:53:54.112Z,17.30
2023-03-19T03:56:21.347Z,16.25
2023-03-19T03:58:48.895Z,16.40
2023-03-19T04:01:17.574Z,14.85
2023-03-19T04:03:45.711Z,16.27
2023-03-19T04:06:19.948Z,15.07
2023-03-19T04:08:47.937Z,15.02
2023-03-19T04:11:15.453Z,16.52
2023-03-19T04:13:42.982Z,15.93
2023-03-19T04:16:11.311Z,15.50
2023-03-19T04:18:39.123Z,15.13
2023-03-19T04:21:07.294Z,13.88
2023-03-19T04:23:35.169Z,15.38
2023-03-19T04:26:05.635Z,15.38
2023-03-19T04:28:34.170Z,14.27
2023-03-19T04:31:08.071Z,15.77
2023-03-19T04:33:36.574Z,16.33
2023-03-19T04:36:05.136Z,14.93
2023-03-19T04:38:32.978Z,16.48
2023-03-19T04:41:01.853Z,14.45
2023-03-19T04:43:30.172Z,13.75
2023-03-19T04:45:57.531Z,13.90
2023-03-19T04:48:26.618Z,13.48
2023-03-19T04:50:57.074Z,15.70
2023-03-19T04:53:25.067Z,15.07
2023-03-19T04:55:52.336Z,14.70
2023-03-19T04:58:19.855Z,15.98
2023-03-19T05:00:47.690Z,15.40
2023-03-19T05:03:16.601Z,16.63
2023-03-19T05:05:43.928Z,16.30
2023-03-19T05:08:11.772Z,15.60
2023-03-19T05:10:39.682Z,14.38
2023-03-19T05:13:07.442Z,15.13
2023-03-19T05:15:34.858Z,13.88
2023-03-19T05:18:02.474Z,15.10
2023-03-19T05:20:29.836Z,13.95
2023-03-19T05:22:57.455Z,14.68
2023-03-19T05:25:24.804Z,16.85
2023-03-19T05:27:52.526Z,13.02
2023-03-19T05:30:19.911Z,15.07
2023-03-19T05:32:47.776Z,15.00
2023-03-19T05:35:15.268Z,14.68
2023-03-19T05:37:42.949Z,15.48
2023-03-19T05:40:12.518Z,16.20
2023-03-19T05:42:40.041Z,15.50
2023-03-19T05:45:07.993Z,14.82
2023-03-19T05:47:35.629Z,15.10
2023-03-19T05:50:03.191Z,13.95
2023-03-19T05:52:31.076Z,14.15
2023-03-19T05:54:58.408Z,13.02
2023-03-19T05:57:26.751Z,12.77
2023-03-19T05:59:54.113Z,13.32
2023-03-19T06:02:22.298Z,14.85
2023-03-19T06:04:49.671Z,14.57
2023-03-19T06:07:17.194Z,13.88
2023-03-19T06:09:44.535Z,12.98
2023-03-19T06:12:12.253Z,12.85
2023-03-19T06:14:39.555Z,14.02
2023-03-19T06:17:07.392Z,14.55
2023-03-19T06:19:34.698Z,12.80
2023-03-19T06:22:02.615Z,13.02
2023-03-19T06:24:30.624Z,13.35
2023-03-19T06:26:58.330Z,13.27
2023-03-19T06:29:27.121Z,12.95
2023-03-19T06:31:57.874Z,12.50
2023-03-19T06:34:25.623Z,11.80
2023-03-19T06:36:53.979Z,11.27
2023-03-19T06:39:21.871Z,11.25
2023-03-19T06:41:49.528Z,13.77
2023-03-19T06:44:17.032Z,12.23
2023-03-19T06:46:45.219Z,11.77
2023-03-19T06:49:12.586Z,13.10
2023-03-19T06:51:40.430Z,11.82
2023-03-19T06:54:07.787Z,11.65
2023-03-19T06:56:35.498Z,11.70
2023-03-19T06:59:03.047Z,11.30
2023-03-19T07:01:30.742Z,10.68
2023-03-19T07:03:58.060Z,10.57
2023-03-19T07:06:25.612Z,10.85
2023-03-19T07:08:52.852Z,9.45
2023-03-19T07:11:20.873Z,12.05
2023-03-19T07:13:48.172Z,10.68
2023-03-19T07:16:15.782Z,10.63
2023-03-19T07:18:43.066Z,10.75
2023-03-19T07:21:10.802Z,11.30
2023-03-19T07:23:38.228Z,11.00
2023-03-19T07:26:05.867Z,12.00
2023-03-19T07:28:33.237Z,11.13
2023-03-19T07:31:00.777Z,11.20
2023-03-19T07:33:28.205Z,10.43
2023-03-19T07:35:56.034Z,10.10
2023-03-19T07:38:23.386Z,9.52
2023-03-19T07:41:01.499Z,11.40
2023-03-19T07:43:29.588Z,10.77
2023-03-19T07:45:57.509Z,10.73
2023-03-19T07:48:25.092Z,10.02
2023-03-19T07:50:54.373Z,10.20
2023-03-19T07:53:21.665Z,11.20
2023-03-19T07:55:49.349Z,11.23
2023-03-19T07:58:17.162Z,9.80
2023-03-19T08:00:48.153Z,9.60
2023-03-19T08:03:16.171Z,8.57
2023-03-19T08:05:43.736Z,8.30
2023-03-19T08:08:11.083Z,9.23
2023-03-19T08:10:39.327Z,9.07
2023-03-19T08:13:06.945Z,9.10
2023-03-19T08:15:34.915Z,9.18
2023-03-19T08:18:05.179Z,8.32
2023-03-19T08:20:33.724Z,8.18
2023-03-19T08:23:01.342Z,8.75
2023-03-19T08:25:32.514Z,9.00
2023-03-19T08:28:01.359Z,8.20
2023-03-19T08:30:29.121Z,10.48
2023-03-19T08:32:56.833Z,11.57
2023-03-19T08:35:27.126Z,11.45
2023-03-19T08:37:55.425Z,10.75
2023-03-19T08:40:23.708Z,10.85
2023-03-19T08:42:51.171Z,12.68
2023-03-19T08:45:19.221Z,12.10
2023-03-19T08:47:46.714Z,11.77
2023-03-19T08:50:14.948Z,12.07
2023-03-19T08:52:42.861Z,11.73
2023-03-19T08:55:10.870Z,12.15
2023-03-19T08:57:38.281Z,11.68
2023-03-19T09:00:07.836Z,11.70
2023-03-19T09:02:35.338Z,11.98
2023-03-19T09:05:03.493Z,12.55
2023-03-19T09:07:30.828Z,10.38
2023-03-19T09:09:58.395Z,10.98
2023-03-19T09:12:26.178Z,10.60
2023-03-19T09:14:53.812Z,10.07
2023-03-19T09:17:21.230Z,9.73
2023-03-19T09:19:48.839Z,10.15
2023-03-19T09:22:16.222Z,9.35
2023-03-19T09:24:43.887Z,9.10
2023-03-19T09:27:11.237Z,8.13
2023-03-19T09:29:38.862Z,8.15
2023-03-19T09:32:06.572Z,7.85
2023-03-19T09:34:34.268Z,7.22
2023-03-19T09:37:01.525Z,7.13
2023-03-19T09:39:29.425Z,7.55
2023-03-19T09:42:50.278Z,6.93
2023-03-19T09:45:20.530Z,6.07
2023-03-19T09:47:56.453Z,4.70
2023-03-19T09:50:32.378Z,5.80
2023-03-19T09:53:39.432Z,5.25
2023-03-19T09:56:14.860Z,5.10
2023-03-19T09:58:44.027Z,4.97
2023-03-19T10:01:35.482Z,5.60
2023-03-19T10:04:37.594Z,5.40
2023-03-19T10:07:19.145Z,8.63
2023-03-19T10:10:18.528Z,6.88
2023-03-19T10:12:58.277Z,6.15
2023-03-19T10:15:36.954Z,5.57
2023-03-19T10:18:32.719Z,5.25
2023-03-19T10:21:16.432Z,6.10
2023-03-19T10:23:49.413Z,6.18
2023-03-19T10:26:26.540Z,7.32
2023-03-19T10:29:11.390Z,5.32
2023-03-19T10:31:50.260Z,5.45
2023-03-19T10:34:36.054Z,5.03
2023-03-19T10:37:26.395Z,5.32
2023-03-19T10:40:00.318Z,6.57
2023-03-19T10:43:04.896Z,5.18
2023-03-19T10:45:38.590Z,5.07
2023-03-19T10:48:13.481Z,4.90
2023-03-19T10:50:58.241Z,4.75
2023-03-19T10:53:38.569Z,5.03
2023-03-19T10:56:19.110Z,8.07
2023-03-19T10:59:06.373Z,5.38
2023-03-19T11:01:41.443Z,4.57
2023-03-19T11:04:22.345Z,4.57
2023-03-19T11:07:06.514Z,4.25
2023-03-19T11:09:38.628Z,4.65
2023-03-19T11:12:53.228Z,4.72
2023-03-19T11:15:29.693Z,4.20
2023-03-19T11:18:01.271Z,4.18
2023-03-19T11:20:33.673Z,4.43
2023-03-19T11:23:04.248Z,3.90
2023-03-19T11:25:38.125Z,4.47
2023-03-19T11:28:15.016Z,4.93
2023-03-19T11:31:29.203Z,5.38
2023-03-19T11:34:25.059Z,3.85
2023-03-19T11:37:05.352Z,4.63
2023-03-19T11:39:54.552Z,5.00
2023-03-19T11:43:09.436Z,4.63
2023-03-19T11:45:59.626Z,4.43
2023-03-19T11:49:07.199Z,5.43
2023-03-19T11:51:50.887Z,4.50
2023-03-19T11:54:50.692Z,4.57
2023-03-19T11:57:58.042Z,4.32
2023-03-19T12:00:48.445Z,4.57
2023-03-19T12:04:08.201Z,4.45
2023-03-19T12:07:06.081Z,5.55
2023-03-19T12:09:41.866Z,5.57
2023-03-19T12:12:25.461Z,4.53
2023-03-19T12:15:42.270Z,5.82
2023-03-19T12:18:42.788Z,4.97
2023-03-19T12:21:42.063Z,5.22
2023-03-19T12:25:01.080Z,4.93
2023-03-19T12:28:00.916Z,4.80
2023-03-19T12:30:53.974Z,4.13
2023-03-19T12:33:49.359Z,4.60
2023-03-19T12:36:25.689Z,4.70
2023-03-19T12:39:15.693Z,9.07
2023-03-19T12:41:48.449Z,5.03
2023-03-19T12:44:28.908Z,4.68
2023-03-19T12:47:05.393Z,4.40
2023-03-19T12:49:52.526Z,4.57
2023-03-19T12:52:51.898Z,4.40
2023-03-19T12:55:50.504Z,4.68
2023-03-19T12:59:17.290Z,4.13
2023-03-19T13:02:25.882Z,5.60
2023-03-19T13:05:23.185Z,3.90
2023-03-19T13:08:19.785Z,5.00
2023-03-19T13:10:47.131Z,4.20
2023-03-19T13:13:40.915Z,6.28
2023-03-19T13:16:35.251Z,5.85
2023-03-19T13:19:21.549Z,5.13
2023-03-19T13:21:55.526Z,5.00
2023-03-19T13:24:28.075Z,6.43
2023-03-19T13:26:58.617Z,5.45
2023-03-19T13:29:32.266Z,4.95
2023-03-19T13:32:44.045Z,5.15
2023-03-19T13:35:36.661Z,5.25
2023-03-19T13:38:27.942Z,4.47
2023-03-19T13:41:00.430Z,5.60
2023-03-19T13:43:30.636Z,5.55
2023-03-19T13:46:13.014Z,6.15
2023-03-19T13:48:46.477Z,5.72
2023-03-19T13:51:20.354Z,5.65
2023-03-19T13:54:12.932Z,10.32
2023-03-19T13:57:08.661Z,5.75
2023-03-19T13:59:39.385Z,7.03
2023-03-19T14:02:22.056Z,6.28
2023-03-19T14:05:04.329Z,6.60
2023-03-19T14:07:41.024Z,6.25
2023-03-19T14:10:25.533Z,6.05
2023-03-19T14:13:08.495Z,6.13
2023-03-19T14:15:41.603Z,5.45
2023-03-19T14:18:19.509Z,5.53
2023-03-19T14:21:12.934Z,6.55
2023-03-19T14:23:52.716Z,6.22
2023-03-19T14:26:23.198Z,6.40
2023-03-19T14:29:08.490Z,6.60
2023-03-19T14:31:44.133Z,7.07
2023-03-19T14:34:11.784Z,7.07
2023-03-19T14:36:47.646Z,6.60
2023-03-19T14:39:29.256Z,6.90
2023-03-19T14:42:29.111Z,7.80
2023-03-19T14:45:20.210Z,7.80
2023-03-19T14:48:32.923Z,7.70
2023-03-19T14:51:27.917Z,6.35
2023-03-19T14:54:07.351Z,6.75
2023-03-19T14:56:36.815Z,7.30
2023-03-19T14:59:06.536Z,7.05
2023-03-19T15:01:41.355Z,7.82
2023-03-19T15:04:15.994Z,8.30
2023-03-19T15:07:04.573Z,7.57
2023-03-19T15:09:34.251Z,7.00
2023-03-19T15:12:13.567Z,6.63
2023-03-19T15:15:11.530Z,6.97
2023-03-19T15:17:39.499Z,7.25
2023-03-19T15:20:22.755Z,6.97
2023-03-19T15:23:01.632Z,6.95
2023-03-19T15:25:29.252Z,7.28
2023-03-19T15:28:13.772Z,7.85
2023-03-19T15:30:53.904Z,7.45
2023-03-19T15:33:40.101Z,7.18
2023-03-19T15:36:19.121Z,7.28
2023-03-19T15:39:07.416Z,7.35
2023-03-19T15:41:43.033Z,6.75
2023-03-19T15:44:42.768Z,7.13
2023-03-19T15:47:22.030Z,6.78
2023-03-19T15:50:16.422Z,6.95
2023-03-19T15:52:54.405Z,6.55
2023-03-19T15:55:25.092Z,6.82
2023-03-19T15:58:02.990Z,5.97
2023-03-19T16:00:30.763Z,6.15
2023-03-19T16:02:58.347Z,5.57
2023-03-19T16:05:32.104Z,6.05
2023-03-19T16:08:17.612Z,6.40
2023-03-19T16:10:48.651Z,6.60
2023-03-19T16:13:37.917Z,6.07
2023-03-19T16:16:23.894Z,5.90
2023-03-19T16:18:57.785Z,7.18
2023-03-19T16:21:28.206Z,5.47
2023-03-19T16:24:09.123Z,5.82
2023-03-19T16:26:43.247Z,6.10
2023-03-19T16:29:45.801Z,6.22
2023-03-19T16:32:24.180Z,11.45
2023-03-19T16:34:57.202Z,15.07
2023-03-19T16:37:45.089Z,10.32
2023-03-19T16:40:12.283Z,9.73
2023-03-19T16:42:45.276Z,8.48
2023-03-19T16:45:16.087Z,7.97
2023-03-19T16:47:52.487Z,7.38
2023-03-19T16:50:31.678Z,6.93
2023-03-19T16:53:01.386Z,7.03
2023-03-19T16:55:36.869Z,7.15
2023-03-19T16:58:11.974Z,7.00
2023-03-19T17:00:39.666Z,6.75
2023-03-19T17:03:17.337Z,7.32
2023-03-19T17:05:46.827Z,7.60
2023-03-19T17:08:15.135Z,12.82
2023-03-19T17:10:51.039Z,20.27
2023-03-19T17:13:28.469Z,27.33
2023-03-19T17:16:14.742Z,19.23
2023-03-19T17:18:44.011Z,16.92
2023-03-19T17:21:16.665Z,16.30
2023-03-19T17:23:44.373Z,14.88
2023-03-19T17:26:28.106Z,14.90
2023-03-19T17:28:57.141Z,12.10
2023-03-19T17:31:31.776Z,9.63
2023-03-19T17:34:05.959Z,9.85
2023-03-19T17:36:33.808Z,9.77
2023-03-19T17:39:01.878Z,9.45
2023-03-19T17:41:32.740Z,8.63
2023-03-19T17:44:03.237Z,9.98
2023-03-19T17:46:38.785Z,9.52
2023-03-19T17:49:12.437Z,10.88
2023-03-19T17:51:39.701Z,9.65
2023-03-19T17:54:12.721Z,9.57
2023-03-19T17:56:43.382Z,12.13
2023-03-19T17:59:11.768Z,15.30
2023-03-19T18:01:45.238Z,21.88
2023-03-19T18:04:17.305Z,26.67
2023-03-19T18:06:54.516Z,24.67
2023-03-19T18:09:28.387Z,26.80
2023-03-19T18:11:56.172Z,27.13
2023-03-19T18:14:23.829Z,25.70
2023-03-19T18:16:51.609Z,27.40
2023-03-19T18:19:30.340Z,27.83
2023-03-19T18:21:58.025Z,25.70
2023-03-19T18:24:25.807Z,26.15
2023-03-19T18:26:53.544Z,21.38
2023-03-19T18:29:21.126Z,18.98
2023-03-19T18:31:50.508Z,19.23
2023-03-19T18:34:18.770Z,17.00
2023-03-19T18:36:46.200Z,16.50
2023-03-19T18:39:15.959Z,14.85
2023-03-19T18:41:44.201Z,12.07
2023-03-19T18:44:12.464Z,16.55
2023-03-19T18:46:41.853Z,15.00
2023-03-19T18:49:36.426Z,13.20
2023-03-19T18:52:04.071Z,19.83
2023-03-19T18:54:32.314Z,21.00
2023-03-19T18:57:02.951Z,26.02
2023-03-19T18:59:33.808Z,27.67
2023-03-19T19:02:33.808Z,37.38
2023-03-19T19:05:02.175Z,38.92
2023-03-19T19:07:29.699Z,32.72
2023-03-19T19:09:57.264Z,29.00
2023-03-19T19:12:26.689Z,31.27
2023-03-19T19:14:54.558Z,30.30
2023-03-19T19:17:29.280Z,30.92
2023-03-19T19:19:57.158Z,31.27
2023-03-19T19:22:24.617Z,30.73
2023-03-19T19:24:52.229Z,33.38
2023-03-19T19:27:24.496Z,31.38
2023-03-19T19:29:53.221Z,30.75
2023-03-19T19:32:26.348Z,29.15
2023-03-19T19:34:54.570Z,26.95
2023-03-19T19:37:23.662Z,26.00
2023-03-19T19:39:51.881Z,25.83
2023-03-19T19:42:22.724Z,32.20
2023-03-19T19:44:58.956Z,27.67
2023-03-19T19:47:27.855Z,27.90
2023-03-19T19:49:56.561Z,26.13
2023-03-19T19:52:23.961Z,27.35
2023-03-19T19:54:52.058Z,25.92
2023-03-19T19:57:24.794Z,28.83
2023-03-19T19:59:54.034Z,25.73
2023-03-19T20:02:28.505Z,30.85
2023-03-19T20:04:57.981Z,30.80
2023-03-19T20:07:25.812Z,29.20
2023-03-19T20:09:53.466Z,27.38
2023-03-19T20:12:31.064Z,29.10
2023-03-19T20:14:59.638Z,28.67
2023-03-19T20:17:27.387Z,27.08
2023-03-19T20:19:55.114Z,31.83
2023-03-19T20:22:22.391Z,31.17
2023-03-19T20:24:51.523Z,34.60
2023-03-19T20:27:30.265Z,37.10
2023-03-19T20:29:57.949Z,35.03
2023-03-19T20:32:39.196Z,33.15
2023-03-19T20:35:18.308Z,30.17
2023-03-19T20:37:46.715Z,29.30
2023-03-19T20:40:15.353Z,27.73
2023-03-19T20:42:48.538Z,31.60
2023-03-19T20:45:24.494Z,30.42
2023-03-19T20:47:53.022Z,33.92
2023-03-19T20:50:33.242Z,31.08
2023-03-19T20:53:03.843Z,29.80
2023-03-19T20:55:35.363Z,27.08
2023-03-19T20:58:14.353Z,27.45
2023-03-19T21:00:42.292Z,28.58
2023-03-19T21:03:16.933Z,28.55
2023-03-19T21:05:46.782Z,27.60
2023-03-19T21:08:20.625Z,27.83
2023-03-19T21:10:49.380Z,28.23
2023-03-19T21:13:19.136Z,25.88
2023-03-19T21:15:49.834Z,23.98
2023-03-19T21:18:17.321Z,23.67
2023-03-19T21:20:51.015Z,23.95
2023-03-19T21:23:56.623Z,23.67
2023-03-19T21:26:25.076Z,22.38
2023-03-19T21:29:01.893Z,22.38
2023-03-19T21:31:29.635Z,21.52
2023-03-19T21:33:58.482Z,21.63
2023-03-19T21:36:27.676Z,21.75
2023-03-19T21:38:54.983Z,21.85
2023-03-19T21:41:36.027Z,21.83
2023-03-19T21:44:20.939Z,19.92
2023-03-19T21:46:49.449Z,19.38
2023-03-19T21:49:18.111Z,21.08
2023-03-19T21:51:46.904Z,18.80
2023-03-19T21:54:15.790Z,19.77
2023-03-19T21:56:45.953Z,19.13
2023-03-19T21:59:23.964Z,18.63
2023-03-19T22:01:51.521Z,18.70
2023-03-19T22:04:19.464Z,18.60
2023-03-19T22:06:47.176Z,17.05
2023-03-19T22:09:14.532Z,18.20
2023-03-19T22:11:42.724Z,18.17
2023-03-19T22:14:27.042Z,18.05
2023-03-19T22:16:56.751Z,18.70
2023-03-19T22:19:24.766Z,18.80
2023-03-19T22:21:52.505Z,19.25
2023-03-19T22:24:19.780Z,19.52
2023-03-19T22:26:56.457Z,18.95
2023-03-19T22:29:28.495Z,18.15
2023-03-19T22:31:56.939Z,19.00
2023-03-19T22:34:30.685Z,18.13
2023-03-19T22:36:59.644Z,17.25
2023-03-19T22:39:26.920Z,17.83
2023-03-19T22:41:54.627Z,17.50
2023-03-19T22:44:31.033Z,16.33
2023-03-19T22:47:01.790Z,16.27
2023-03-19T22:49:30.156Z,15.93
2023-03-19T22:51:58.397Z,14.88
2023-03-19T22:54:26.313Z,15.65
2023-03-19T22:56:53.870Z,14.88
2023-03-19T22:59:21.656Z,15.35
2023-03-19T23:01:49.531Z,15.77
2023-03-19T23:04:32.504Z,14.93
2023-03-19T23:07:01.233Z,14.63
2023-03-19T23:09:38.863Z,15.95
2023-03-19T23:14:36.862Z,15.02
2023-03-19T23:17:17.568Z,15.38
2023-03-19T23:19:44.960Z,14.32
2023-03-19T23:22:16.696Z,14.07
2023-03-19T23:24:44.878Z,14.13
2023-03-19T23:27:26.252Z,13.45
2023-03-19T23:29:53.814Z,14.63
2023-03-19T23:32:22.018Z,13.07
2023-03-19T23:34:59.627Z,13.70
2023-03-19T23:37:29.211Z,13.27
2023-03-19T23:39:57.742Z,13.30
2023-03-19T23:42:31.749Z,13.07
2023-03-19T23:45:03.844Z,13.38
2023-03-19T23:47:32.298Z,13.27
2023-03-19T23:49:59.589Z,14.35
2023-03-19T23:52:27.151Z,15.07
2023-03-19T23:54:54.465Z,14.25
2023-03-19T23:57:26.681Z,15.30
2023-03-19T23:59:54.214Z,15.63
